Cardak, Turkey

7:15 PM EEST on September 03, 2015 (GMT +0300)
Cardak Air Base | | Change Station
CLOSE
Current Station
Airport
Location: Cardak,
Elevation: 2785 ft
Nearby Weather Stations

Elev 2785 ft 37.79 °N, 29.70 °E | Updated 25 minutes ago

Clear
Clear
82 °F
Feels Like 81 °F
N
14
Wind Variable Wind from WNW

Today
High -- | Low -- °F
--% Chance of Precip.
Yesterday
High -- | Low -- °F
Precip. -- in
6:32 AM 7:28 PM
Waning Gibbous, 69% visible
Pressure 29.89 in
Visibility -9999.0 miles
Clouds
Heat Index 81 °F
Dew Point 54 °F
Humidity 37%
Rainfall 0.00 in
Snow Depth Not available.
UV Not available.
Pollen Not available.
Air Quality Not available.
Flu Activity Not available.
METAR LTAY 031550Z 30012KT 270V340 CAVOK 28/12 Q1012
Pressure 29.89 in
Visibility -9999.0 miles
Clouds
Heat Index 81 °F
Dew Point 54 °F
Humidity 37%
Rainfall 0.00 in
Snow Depth Not available.
UV Not available.
Pollen Not available.
Air Quality Not available.
Flu Activity Not available.
METAR LTAY 031550Z 30012KT 270V340 CAVOK 28/12 Q1012

10-Day Weather Forecast

×

Almanac

Astronomy

Sep. 03, 2015 Rise Set
Actual Time
Civil Twilight
Nautical Twilight
Astronomical Twilight
Moon
Length of Visible Light
Length of Day
Tomorrow will be .
, % of the Moon is Illuminated

Today's Extremes

Country Highs Country Lows

Community

WunderPhotos

Upload Photos

1,851,985 photos uploaded!

WunderBlogs® & News

Nearby

Air Quality

  Air Quality AQ Index Pollutant
Not available.

Snow Depth

Station Depth Elevation

Earthquake Activity

City Distance Mag. Time & Date
Minimum magnitude displayed is 2.5.

Coastal Water Temperatures

Place Temperature

Stations

Nearby Weather Stations

Station Location Temp. Windchill Dew Point Humidity Wind Precip. Elev Updated Type